createdAt,value
2018-09-14T00:00:08.868Z,998.44
2018-09-14T00:01:08.807Z,998.44
2018-09-14T00:02:08.787Z,998.45
2018-09-14T00:03:08.935Z,998.41
2018-09-14T00:04:08.755Z,998.44
2018-09-14T00:05:08.768Z,998.47
2018-09-14T00:06:08.723Z,998.44
2018-09-14T00:07:08.707Z,998.46
2018-09-14T00:08:08.691Z,998.43
2018-09-14T00:09:08.682Z,998.44
2018-09-14T00:10:08.663Z,998.43
2018-09-14T00:11:08.642Z,998.43
2018-09-14T00:12:08.699Z,998.41
2018-09-14T00:13:08.612Z,998.44
2018-09-14T00:14:08.694Z,998.45
2018-09-14T00:15:08.587Z,998.44
2018-09-14T00:16:08.561Z,998.42
2018-09-14T00:17:08.545Z,998.41
2018-09-14T00:18:08.529Z,998.38
2018-09-14T00:19:08.523Z,998.41
2018-09-14T00:20:08.502Z,998.43
2018-09-14T00:21:08.481Z,998.43
2018-09-14T00:22:08.466Z,998.39
2018-09-14T00:23:08.509Z,998.41
2018-09-14T00:24:08.437Z,998.38
2018-09-14T00:25:08.419Z,998.38
2018-09-14T00:26:08.402Z,998.35
2018-09-14T00:27:08.632Z,998.34
2018-09-14T00:28:08.380Z,998.34
2018-09-14T00:29:08.355Z,998.34
2018-09-14T00:30:08.338Z,998.33
2018-09-14T00:31:08.326Z,998.32
2018-09-14T00:32:08.310Z,998.33
2018-09-14T00:33:08.294Z,998.31
2018-09-14T00:34:08.274Z,998.27
2018-09-14T00:35:08.487Z,998.27
2018-09-14T00:36:08.469Z,998.26
2018-09-14T00:37:08.243Z,998.26
2018-09-14T00:38:08.210Z,998.21
2018-09-14T00:39:08.201Z,998.25
2018-09-14T00:40:08.184Z,998.23
2018-09-14T00:41:08.169Z,998.25
2018-09-14T00:42:08.152Z,998.20
2018-09-14T00:43:08.137Z,998.22
2018-09-14T00:44:08.121Z,998.22
2018-09-14T00:45:08.134Z,998.18
2018-09-14T00:46:08.098Z,998.23
2018-09-14T00:47:08.073Z,998.18
2018-09-14T00:48:08.232Z,998.17
2018-09-14T00:49:08.214Z,998.18
2018-09-14T00:50:08.022Z,998.17
2018-09-14T00:51:08.009Z,998.17
2018-09-14T00:52:07.987Z,998.16
2018-09-14T00:53:07.980Z,998.18
2018-09-14T00:54:07.955Z,998.14
2018-09-14T01:00:15.771Z,998.08
2018-09-14T01:00:44.162Z,998.08
2018-09-14T01:01:44.112Z,998.08
2018-09-14T01:02:44.100Z,998.08
2018-09-14T01:03:44.077Z,998.08
2018-09-14T01:04:44.064Z,998.11
2018-09-14T01:05:44.048Z,998.11
2018-09-14T01:06:44.032Z,998.12
2018-09-14T01:07:44.013Z,998.11
2018-09-14T01:08:44.006Z,998.10
2018-09-14T01:09:43.994Z,998.11
2018-09-14T01:10:43.973Z,998.14
2018-09-14T01:11:43.952Z,998.10
2018-09-14T01:12:43.932Z,998.10
2018-09-14T01:13:43.917Z,998.15
2018-09-14T01:14:43.904Z,998.15
2018-09-14T01:15:43.888Z,998.14
2018-09-14T01:16:43.868Z,998.16
2018-09-14T01:17:43.859Z,998.13
2018-09-14T01:18:43.845Z,998.13
2018-09-14T01:19:43.825Z,998.15
2018-09-14T01:20:43.806Z,998.14
2018-09-14T01:21:43.790Z,998.15
2018-09-14T01:22:43.774Z,998.11
2018-09-14T01:23:43.758Z,998.12
2018-09-14T01:24:43.749Z,998.12
2018-09-14T01:25:43.726Z,998.09
2018-09-14T01:26:43.711Z,998.04
2018-09-14T01:27:43.690Z,998.06
2018-09-14T01:28:43.681Z,998.07
2018-09-14T01:29:43.668Z,998.08
2018-09-14T01:30:43.646Z,998.05
2018-09-14T01:31:43.628Z,998.10
2018-09-14T01:32:43.612Z,998.09
2018-09-14T01:33:43.599Z,998.10
2018-09-14T01:34:43.579Z,998.08
2018-09-14T01:35:43.563Z,998.08
2018-09-14T01:36:43.551Z,998.09
2018-09-14T01:37:43.531Z,998.05
2018-09-14T01:38:43.516Z,998.07
2018-09-14T01:39:43.500Z,998.07
2018-09-14T01:40:43.493Z,998.07
2018-09-14T01:41:43.508Z,998.10
2018-09-14T01:42:43.448Z,998.11
2018-09-14T01:43:43.430Z,998.12
2018-09-14T01:44:43.441Z,998.06
2018-09-14T01:45:43.405Z,998.12
2018-09-14T01:46:43.383Z,998.08
2018-09-14T01:47:43.380Z,998.13
2018-09-14T01:48:43.351Z,998.10
2018-09-14T01:49:43.345Z,998.10
2018-09-14T01:50:43.319Z,998.11
2018-09-14T01:51:43.303Z,998.12
2018-09-14T01:52:43.289Z,998.10
2018-09-14T01:53:43.274Z,998.11
2018-09-14T01:54:43.252Z,998.09
2018-09-14T01:55:43.237Z,998.12
2018-09-14T01:56:43.221Z,998.09
2018-09-14T01:57:43.207Z,998.13
2018-09-14T01:58:43.189Z,998.15
2018-09-14T01:59:43.173Z,998.14
2018-09-14T02:00:43.161Z,998.13
2018-09-14T02:01:43.142Z,998.11
2018-09-14T02:02:43.132Z,998.13
2018-09-14T02:03:43.107Z,998.05
2018-09-14T02:04:43.093Z,998.08
2018-09-14T02:05:43.077Z,998.06
2018-09-14T02:06:43.069Z,998.06
2018-09-14T02:07:43.049Z,998.06
2018-09-14T02:08:43.033Z,998.06
2018-09-14T02:09:43.012Z,998.05
2018-09-14T02:10:42.993Z,998.04
2018-09-14T02:11:42.977Z,998.05
2018-09-14T02:12:42.978Z,998.05
2018-09-14T02:13:42.948Z,998.00
2018-09-14T02:14:42.932Z,998.02
2018-09-14T02:15:42.920Z,998.04
2018-09-14T02:16:42.897Z,998.00
2018-09-14T02:17:42.882Z,998.02
2018-09-14T02:18:42.863Z,997.99
2018-09-14T02:19:42.849Z,997.96
2018-09-14T02:20:42.842Z,997.98
2018-09-14T02:21:42.839Z,997.98
2018-09-14T02:22:42.803Z,997.96
2018-09-14T02:23:42.785Z,997.98
2018-09-14T02:24:42.778Z,998.02
2018-09-14T02:25:42.797Z,998.03
2018-09-14T02:26:42.740Z,998.01
2018-09-14T02:27:42.730Z,998.00
2018-09-14T02:28:42.711Z,997.99
2018-09-14T02:29:42.690Z,997.99
2018-09-14T02:30:42.739Z,997.98
2018-09-14T02:31:42.656Z,997.95
2018-09-14T02:32:42.660Z,997.99
2018-09-14T02:33:42.625Z,997.97
2018-09-14T02:34:42.615Z,997.98
2018-09-14T02:35:42.599Z,997.99
2018-09-14T02:36:42.577Z,997.94
2018-09-14T02:37:42.561Z,997.94
2018-09-14T02:38:42.544Z,997.97
2018-09-14T02:39:42.531Z,997.95
2018-09-14T02:40:42.525Z,997.92
2018-09-14T02:41:42.504Z,997.94
2018-09-14T02:42:42.488Z,997.94
2018-09-14T02:43:42.468Z,997.96
2018-09-14T02:44:42.449Z,997.95
2018-09-14T02:45:42.434Z,997.96
2018-09-14T02:46:42.420Z,997.98
2018-09-14T02:47:42.403Z,997.96
2018-09-14T02:48:42.404Z,997.96
2018-09-14T02:49:42.368Z,997.97
2018-09-14T02:50:42.359Z,997.94
2018-09-14T02:51:42.334Z,997.97
2018-09-14T02:52:42.320Z,997.93
2018-09-14T02:53:43.249Z,997.98
2018-09-14T02:54:42.290Z,997.99
2018-09-14T02:55:42.281Z,997.98
2018-09-14T02:56:42.257Z,997.98
2018-09-14T02:57:42.243Z,997.99
2018-09-14T02:58:42.224Z,997.97
2018-09-14T02:59:42.207Z,997.96
2018-09-14T03:00:42.198Z,997.97
2018-09-14T03:01:42.181Z,997.96
2018-09-14T03:02:42.160Z,997.98
2018-09-14T03:03:42.157Z,997.99
2018-09-14T03:04:42.127Z,997.98
2018-09-14T03:05:42.112Z,997.97
2018-09-14T03:06:42.105Z,997.98
2018-09-14T03:07:42.083Z,998.02
2018-09-14T03:08:42.069Z,997.98
2018-09-14T03:09:42.054Z,997.98
2018-09-14T03:10:42.034Z,998.01
2018-09-14T03:11:42.013Z,998.00
2018-09-14T03:12:42.023Z,998.03
2018-09-14T03:13:41.980Z,998.01
2018-09-14T03:14:41.965Z,998.02
2018-09-14T03:15:41.952Z,998.03
2018-09-14T03:16:41.936Z,998.04
2018-09-14T03:17:41.926Z,998.02
2018-09-14T03:18:41.901Z,998.01
2018-09-14T03:19:41.891Z,998.03
2018-09-14T03:20:41.879Z,998.04
2018-09-14T03:21:41.859Z,998.11
2018-09-14T03:22:41.842Z,998.07
2018-09-14T03:23:41.833Z,998.08
2018-09-14T03:24:41.822Z,998.05
2018-09-14T03:25:41.786Z,998.09
2018-09-14T03:26:42.717Z,998.07
2018-09-14T03:27:41.758Z,998.08
2018-09-14T03:28:41.741Z,998.06
2018-09-14T03:29:41.722Z,998.04
2018-09-14T03:30:41.716Z,998.06
2018-09-14T03:31:41.693Z,998.06
2018-09-14T03:32:41.674Z,998.06
2018-09-14T03:33:41.664Z,998.10
2018-09-14T03:34:41.658Z,998.09
2018-09-14T03:35:41.626Z,998.09
2018-09-14T03:36:41.607Z,998.08
2018-09-14T03:37:41.594Z,998.08
2018-09-14T03:38:41.583Z,998.09
2018-09-14T03:39:41.562Z,998.10
2018-09-14T03:40:41.542Z,998.09
2018-09-14T03:41:41.539Z,998.06
2018-09-14T03:42:42.365Z,998.08
2018-09-14T03:43:41.507Z,998.08
2018-09-14T03:44:41.485Z,998.10
2018-09-14T03:45:41.472Z,998.08
2018-09-14T03:46:41.448Z,998.12
2018-09-14T03:47:41.429Z,998.10
2018-09-14T03:48:41.420Z,998.12
2018-09-14T03:49:41.413Z,998.10
2018-09-14T03:50:41.398Z,998.08
2018-09-14T03:51:41.368Z,998.12
2018-09-14T03:52:41.356Z,998.14
2018-09-14T03:53:41.336Z,998.16
2018-09-14T03:54:41.317Z,998.17
2018-09-14T03:55:41.307Z,998.16
2018-09-14T03:56:41.301Z,998.20
2018-09-14T03:57:41.272Z,998.18
2018-09-14T03:58:41.256Z,998.22
2018-09-14T03:59:41.246Z,998.19
2018-09-14T04:00:41.218Z,998.19
2018-09-14T04:01:41.212Z,998.20
2018-09-14T04:02:41.206Z,998.24
2018-09-14T04:03:41.167Z,998.22
2018-09-14T04:04:41.155Z,998.21
2018-09-14T04:05:41.135Z,998.18
2018-09-14T04:06:41.126Z,998.15
2018-09-14T04:07:41.166Z,998.16
2018-09-14T04:08:41.088Z,998.18
2018-09-14T04:09:41.075Z,998.16
2018-09-14T04:10:41.058Z,998.16
2018-09-14T04:11:41.039Z,998.14
2018-09-14T04:12:41.022Z,998.14
2018-09-14T04:13:41.008Z,998.08
2018-09-14T04:14:41.013Z,998.09
2018-09-14T04:15:40.985Z,998.09
2018-09-14T04:16:40.965Z,998.07
2018-09-14T04:17:40.940Z,998.08
2018-09-14T04:18:40.940Z,998.07
2018-09-14T04:19:40.911Z,998.07
2018-09-14T04:20:40.894Z,998.07
2018-09-14T04:21:40.882Z,998.07
2018-09-14T04:22:40.873Z,998.09
2018-09-14T04:23:40.902Z,998.06
2018-09-14T04:24:40.826Z,998.06
2018-09-14T04:25:40.820Z,998.12
2018-09-14T04:26:40.796Z,998.09
2018-09-14T04:27:40.784Z,998.09
2018-09-14T04:28:40.768Z,998.09
2018-09-14T04:29:40.749Z,998.08
2018-09-14T04:30:40.733Z,998.10
2018-09-14T04:31:40.711Z,998.11
2018-09-14T04:32:40.696Z,998.14
2018-09-14T04:33:40.692Z,998.14
2018-09-14T04:34:40.683Z,998.15
2018-09-14T04:35:40.646Z,998.13
2018-09-14T04:36:40.640Z,998.17
2018-09-14T04:37:40.617Z,998.16
2018-09-14T04:38:40.632Z,998.20
2018-09-14T04:39:40.585Z,998.20
2018-09-14T04:40:40.566Z,998.20
2018-09-14T04:41:40.553Z,998.20
2018-09-14T04:42:40.586Z,998.22
2018-09-14T04:43:40.518Z,998.17
2018-09-14T04:44:40.503Z,998.21
2018-09-14T04:45:40.483Z,998.20
2018-09-14T04:46:40.480Z,998.21
2018-09-14T04:47:40.457Z,998.20
2018-09-14T04:48:40.444Z,998.20
2018-09-14T04:49:40.424Z,998.24
2018-09-14T04:50:40.409Z,998.27
2018-09-14T04:51:40.386Z,998.29
2018-09-14T04:52:40.374Z,998.27
2018-09-14T04:53:40.358Z,998.31
2018-09-14T04:54:40.344Z,998.31
2018-09-14T04:55:40.318Z,998.33
2018-09-14T04:56:40.303Z,998.36
2018-09-14T04:57:40.293Z,998.36
2018-09-14T04:58:40.293Z,998.37
2018-09-14T04:59:40.258Z,998.32
2018-09-14T05:00:40.322Z,998.37
2018-09-14T05:01:40.223Z,998.37
2018-09-14T05:02:40.224Z,998.42
2018-09-14T05:03:40.192Z,998.36
2018-09-14T05:04:40.175Z,998.38
2018-09-14T05:05:40.152Z,998.36
2018-09-14T05:06:40.159Z,998.39
2018-09-14T05:07:40.198Z,998.38
2018-09-14T05:08:40.114Z,998.39
2018-09-14T05:09:40.088Z,998.37
2018-09-14T05:10:40.086Z,998.40
2018-09-14T05:11:40.056Z,998.36
2018-09-14T05:12:40.050Z,998.37
2018-09-14T05:13:40.037Z,998.38
2018-09-14T05:14:40.005Z,998.36
2018-09-14T05:15:40.005Z,998.41
2018-09-14T05:16:39.976Z,998.41
2018-09-14T05:17:39.992Z,998.40
2018-09-14T05:18:39.950Z,998.42
2018-09-14T05:19:39.931Z,998.39
2018-09-14T05:20:39.909Z,998.42
2018-09-14T05:21:39.897Z,998.39
2018-09-14T05:22:39.877Z,998.43
2018-09-14T05:23:39.871Z,998.39
2018-09-14T05:24:39.906Z,998.40
2018-09-14T05:25:39.834Z,998.44
2018-09-14T05:26:39.815Z,998.45
2018-09-14T05:27:39.789Z,998.46
2018-09-14T05:28:39.777Z,998.44
2018-09-14T05:29:39.760Z,998.47
2018-09-14T05:30:39.751Z,998.48
2018-09-14T05:31:39.732Z,998.47
2018-09-14T05:32:39.725Z,998.49
2018-09-14T05:33:39.697Z,998.49
2018-09-14T05:34:39.686Z,998.48
2018-09-14T05:35:39.661Z,998.50
2018-09-14T05:36:39.651Z,998.49
2018-09-14T05:37:39.641Z,998.50
2018-09-14T05:38:39.614Z,998.51
2018-09-14T05:39:39.604Z,998.51
2018-09-14T05:40:39.607Z,998.52
2018-09-14T05:41:39.566Z,998.52
2018-09-14T05:42:39.544Z,998.56
2018-09-14T05:43:39.534Z,998.57
2018-09-14T05:44:39.524Z,998.53
2018-09-14T05:45:39.554Z,998.57
2018-09-14T05:46:39.489Z,998.57
2018-09-14T05:47:39.473Z,998.56
2018-09-14T05:48:39.457Z,998.55
2018-09-14T05:49:39.431Z,998.55
2018-09-14T05:50:39.422Z,998.59
2018-09-14T05:51:39.427Z,998.62
2018-09-14T05:52:39.390Z,998.63
2018-09-14T05:53:39.374Z,998.58
2018-09-14T05:54:39.355Z,998.62
2018-09-14T05:55:39.346Z,998.63
2018-09-14T05:56:39.336Z,998.65
2018-09-14T05:57:39.301Z,998.62
2018-09-14T05:58:39.288Z,998.63
2018-09-14T05:59:39.288Z,998.62
2018-09-14T06:00:39.259Z,998.62
2018-09-14T06:01:39.251Z,998.61
2018-09-14T06:02:39.228Z,998.59
2018-09-14T06:03:39.218Z,998.61
2018-09-14T06:04:39.193Z,998.65
2018-09-14T06:05:39.170Z,998.64
2018-09-14T06:06:39.221Z,998.69
2018-09-14T06:07:39.148Z,998.71
2018-09-14T06:08:39.129Z,998.73
2018-09-14T06:09:39.111Z,998.75
2018-09-14T06:10:39.090Z,998.76
2018-09-14T06:11:39.083Z,998.75
2018-09-14T06:12:39.081Z,998.75
2018-09-14T06:13:39.058Z,998.76
2018-09-14T06:14:39.037Z,998.76
2018-09-14T06:15:39.019Z,998.75
2018-09-14T06:16:38.996Z,998.74
2018-09-14T06:17:38.989Z,998.78
2018-09-14T06:18:38.973Z,998.77
2018-09-14T06:19:38.951Z,998.80
2018-09-14T06:20:38.934Z,998.77
2018-09-14T06:21:38.928Z,998.80
2018-09-14T06:22:39.005Z,998.81
2018-09-14T06:23:38.890Z,998.82
2018-09-14T06:24:38.874Z,998.80
2018-09-14T06:25:38.867Z,998.84
2018-09-14T06:26:38.840Z,998.81
2018-09-14T06:27:38.820Z,998.83
2018-09-14T06:28:38.802Z,998.82
2018-09-14T06:29:38.785Z,998.85
2018-09-14T06:30:38.769Z,998.82
2018-09-14T06:31:38.750Z,998.86
2018-09-14T06:32:38.750Z,998.85
2018-09-14T06:33:38.725Z,998.83
2018-09-14T06:34:38.726Z,998.85
2018-09-14T06:35:38.689Z,998.83
2018-09-14T06:36:38.676Z,998.83
2018-09-14T06:37:38.660Z,998.84
2018-09-14T06:38:38.648Z,998.88
2018-09-14T06:39:38.685Z,998.85
2018-09-14T06:40:38.615Z,998.90
2018-09-14T06:41:38.596Z,998.87
2018-09-14T06:42:38.583Z,998.86
2018-09-14T06:43:38.566Z,998.87
2018-09-14T06:44:38.564Z,998.86
2018-09-14T06:45:38.541Z,998.87
2018-09-14T06:46:38.522Z,998.88
2018-09-14T06:47:38.509Z,998.91
2018-09-14T06:48:38.486Z,998.91
2018-09-14T06:49:38.464Z,998.92
2018-09-14T06:50:38.505Z,998.87
2018-09-14T06:51:38.437Z,998.88
2018-09-14T06:52:38.424Z,998.93
2018-09-14T06:53:38.424Z,998.87
2018-09-14T06:54:38.408Z,998.90
2018-09-14T06:55:38.380Z,998.92
2018-09-14T06:56:38.360Z,998.89
2018-09-14T06:57:38.348Z,998.92
2018-09-14T06:58:38.322Z,998.91
2018-09-14T06:59:38.319Z,998.90
2018-09-14T07:00:38.300Z,998.91
2018-09-14T07:01:38.280Z,998.92
2018-09-14T07:02:38.274Z,998.92
2018-09-14T07:03:38.251Z,998.94
2018-09-14T07:04:38.244Z,998.92
2018-09-14T07:05:38.231Z,998.92
2018-09-14T07:06:38.199Z,998.92
2018-09-14T07:07:38.186Z,998.94
2018-09-14T07:08:38.187Z,998.94
2018-09-14T07:09:38.151Z,998.91
2018-09-14T07:10:38.161Z,998.96
2018-09-14T07:11:38.169Z,998.98
2018-09-14T07:12:38.129Z,998.99
2018-09-14T07:13:38.100Z,998.98
2018-09-14T07:14:38.077Z,998.99
2018-09-14T07:15:38.058Z,998.98
2018-09-14T07:16:38.067Z,999.01
2018-09-14T07:17:38.044Z,999.03
2018-09-14T07:18:38.020Z,999.02
2018-09-14T07:19:38.006Z,999.02
2018-09-14T07:20:38.016Z,999.04
2018-09-14T07:21:37.993Z,999.06
2018-09-14T07:22:37.965Z,999.09
2018-09-14T07:23:37.942Z,999.12
2018-09-14T07:24:38.039Z,999.07
2018-09-14T07:25:37.915Z,999.07
2018-09-14T07:26:37.892Z,999.12
2018-09-14T07:27:37.910Z,999.09
2018-09-14T07:28:37.889Z,999.07
2018-09-14T07:29:37.844Z,999.10
2018-09-14T07:30:37.827Z,999.10
2018-09-14T07:31:37.877Z,999.08
2018-09-14T07:32:37.819Z,999.08
2018-09-14T07:33:37.779Z,999.11
2018-09-14T07:34:37.792Z,999.07
2018-09-14T07:35:37.747Z,999.08
2018-09-14T07:36:37.806Z,999.11
2018-09-14T07:37:37.723Z,999.13
2018-09-14T07:38:37.706Z,999.12
2018-09-14T07:39:37.699Z,999.14
2018-09-14T07:40:37.696Z,999.14
2018-09-14T07:41:37.651Z,999.17
2018-09-14T07:42:37.697Z,999.18
2018-09-14T07:43:37.625Z,999.17
2018-09-14T07:44:37.610Z,999.14
2018-09-14T07:45:37.590Z,999.17
2018-09-14T07:46:37.583Z,999.17
2018-09-14T07:47:37.567Z,999.14
2018-09-14T07:48:37.563Z,999.15
2018-09-14T07:49:37.535Z,999.13
2018-09-14T07:50:37.525Z,999.12
2018-09-14T07:51:37.510Z,999.15
2018-09-14T07:52:37.491Z,999.11
2018-09-14T07:53:38.302Z,999.07
2018-09-14T07:54:37.459Z,999.08
2018-09-14T07:55:37.452Z,999.12
2018-09-14T07:56:37.431Z,999.12
2018-09-14T07:57:37.418Z,999.08
2018-09-14T07:58:37.405Z,999.09
2018-09-14T07:59:37.398Z,999.10
2018-09-14T08:00:37.390Z,999.11
2018-09-14T08:01:37.361Z,999.12
2018-09-14T08:02:37.354Z,999.09
2018-09-14T08:03:37.329Z,999.11
2018-09-14T08:04:37.319Z,999.15
2018-09-14T08:05:37.309Z,999.16
2018-09-14T08:06:37.300Z,999.17
2018-09-14T08:07:37.285Z,999.24
2018-09-14T08:08:37.262Z,999.21
2018-09-14T08:09:37.249Z,999.19
2018-09-14T08:10:37.234Z,999.22
2018-09-14T08:11:37.218Z,999.26
2018-09-14T08:12:37.203Z,999.27
2018-09-14T08:13:37.193Z,999.24
2018-09-14T08:14:37.209Z,999.27
2018-09-14T08:15:37.168Z,999.27
2018-09-14T08:16:37.148Z,999.21
2018-09-14T08:17:37.136Z,999.24
2018-09-14T08:18:37.122Z,999.25
2018-09-14T08:19:37.116Z,999.21
2018-09-14T08:20:37.094Z,999.24
2018-09-14T08:21:37.132Z,999.21
2018-09-14T08:22:37.075Z,999.22
2018-09-14T08:23:37.068Z,999.21
2018-09-14T08:24:37.050Z,999.23
2018-09-14T08:25:37.027Z,999.21
2018-09-14T08:26:37.016Z,999.18
2018-09-14T08:27:37.004Z,999.20
2018-09-14T08:28:36.990Z,999.19
2018-09-14T08:29:36.976Z,999.20
2018-09-14T08:30:36.962Z,999.27
2018-09-14T08:31:36.950Z,999.25
2018-09-14T08:32:36.941Z,999.28
2018-09-14T08:33:36.934Z,999.30
2018-09-14T08:34:36.918Z,999.29
2018-09-14T08:35:36.905Z,999.29
2018-09-14T08:36:36.892Z,999.30
2018-09-14T08:37:36.873Z,999.36
2018-09-14T08:38:36.870Z,999.33
2018-09-14T08:39:36.848Z,999.32
2018-09-14T08:40:36.845Z,999.35
2018-09-14T08:41:36.839Z,999.36
2018-09-14T08:42:36.825Z,999.37
2018-09-14T08:43:36.809Z,999.42
2018-09-14T08:44:36.790Z,999.39
2018-09-14T08:45:36.790Z,999.42
2018-09-14T08:46:36.777Z,999.41
2018-09-14T08:47:36.771Z,999.39
2018-09-14T08:48:36.752Z,999.40
2018-09-14T08:49:36.741Z,999.44
2018-09-14T08:50:36.726Z,999.46
2018-09-14T08:51:36.726Z,999.40
2018-09-14T08:52:36.708Z,999.41
2018-09-14T08:53:36.725Z,999.43
2018-09-14T08:54:36.686Z,999.48
2018-09-14T08:55:36.675Z,999.49
2018-09-14T08:56:36.665Z,999.47
2018-09-14T08:57:36.653Z,999.50
2018-09-14T08:58:36.644Z,999.47
2018-09-14T08:59:36.639Z,999.52
2018-09-14T09:00:36.677Z,999.51
2018-09-14T09:01:36.606Z,999.50
2018-09-14T09:02:36.625Z,999.53
2018-09-14T09:03:36.591Z,999.55
2018-09-14T09:04:36.588Z,999.55
2018-09-14T09:05:36.603Z,999.53
2018-09-14T09:06:36.564Z,999.54
2018-09-14T09:07:36.545Z,999.55
2018-09-14T09:08:36.542Z,999.57
2018-09-14T09:09:36.526Z,999.55
2018-09-14T09:10:36.514Z,999.52
2018-09-14T09:11:36.504Z,999.52
2018-09-14T09:12:36.497Z,999.55
2018-09-14T09:13:36.488Z,999.54
2018-09-14T09:14:36.484Z,999.56
2018-09-14T09:15:36.490Z,999.53
2018-09-14T09:16:36.455Z,999.56
2018-09-14T09:17:36.509Z,999.57
2018-09-14T09:18:36.440Z,999.56
2018-09-14T09:19:36.421Z,999.56
2018-09-14T09:20:36.420Z,999.52
2018-09-14T09:21:36.414Z,999.55
2018-09-14T09:22:36.474Z,999.51
2018-09-14T09:23:37.336Z,999.50
2018-09-14T09:24:36.376Z,999.47
2018-09-14T09:25:36.366Z,999.50
2018-09-14T09:26:36.382Z,999.50
2018-09-14T09:27:36.340Z,999.48
2018-09-14T09:28:36.340Z,999.47
2018-09-14T09:29:36.435Z,999.45
2018-09-14T09:30:36.318Z,999.42
2018-09-14T09:31:36.299Z,999.43
2018-09-14T09:32:36.296Z,999.40
2018-09-14T09:33:36.289Z,999.40
2018-09-14T09:34:36.271Z,999.39
2018-09-14T09:35:36.261Z,999.38
2018-09-14T09:36:36.266Z,999.39
2018-09-14T09:37:36.237Z,999.37
2018-09-14T09:38:36.221Z,999.37
2018-09-14T09:39:36.206Z,999.39
2018-09-14T09:40:36.202Z,999.39
2018-09-14T09:41:36.186Z,999.37
2018-09-14T09:42:36.180Z,999.39
2018-09-14T09:43:36.371Z,999.45
2018-09-14T09:44:36.151Z,999.42
2018-09-14T09:45:36.157Z,999.43
2018-09-14T09:46:36.128Z,999.47
2018-09-14T09:47:36.122Z,999.47
2018-09-14T09:48:36.112Z,999.49
2018-09-14T09:49:36.847Z,999.52
2018-09-14T09:50:36.116Z,999.51
2018-09-14T09:51:36.077Z,999.52
2018-09-14T09:52:36.067Z,999.55
2018-09-14T09:53:36.064Z,999.54
2018-09-14T09:54:36.049Z,999.55
2018-09-14T09:55:36.033Z,999.57
2018-09-14T09:56:36.083Z,999.55
2018-09-14T09:57:36.005Z,999.53
2018-09-14T09:58:36.002Z,999.55
2018-09-14T09:59:35.986Z,999.58
2018-09-14T10:00:35.979Z,999.58
2018-09-14T10:01:35.976Z,999.54
2018-09-14T10:02:35.951Z,999.60
2018-09-14T10:03:36.008Z,999.58
2018-09-14T10:04:35.938Z,999.54
2018-09-14T10:05:35.922Z,999.57
2018-09-14T10:06:35.909Z,999.59
2018-09-14T10:07:35.893Z,999.58
2018-09-14T10:08:35.884Z,999.55
2018-09-14T10:09:35.881Z,999.55
2018-09-14T10:10:35.864Z,999.58
2018-09-14T10:11:35.847Z,999.56
2018-09-14T10:12:35.838Z,999.54
2018-09-14T10:13:35.832Z,999.53
2018-09-14T10:14:35.816Z,999.56
2018-09-14T10:15:35.807Z,999.55
2018-09-14T10:16:35.796Z,999.55
2018-09-14T10:17:35.796Z,999.58
2018-09-14T10:18:35.780Z,999.59
2018-09-14T10:19:35.761Z,999.58
2018-09-14T10:20:35.773Z,999.62
2018-09-14T10:21:35.791Z,999.60
2018-09-14T10:22:35.743Z,999.57
2018-09-14T10:23:35.726Z,999.57
2018-09-14T10:24:35.713Z,999.55
2018-09-14T10:25:35.701Z,999.52
2018-09-14T10:26:35.701Z,999.53
2018-09-14T10:27:35.684Z,999.54
2018-09-14T10:28:35.668Z,999.57
2018-09-14T10:29:35.681Z,999.53
2018-09-14T10:30:35.659Z,999.55
2018-09-14T10:31:35.652Z,999.56
2018-09-14T10:32:35.635Z,999.55
2018-09-14T10:33:35.629Z,999.57
2018-09-14T10:34:35.620Z,999.54
2018-09-14T10:35:35.613Z,999.55
2018-09-14T10:36:35.601Z,999.57
2018-09-14T10:37:35.598Z,999.50
2018-09-14T10:38:35.584Z,999.47
2018-09-14T10:39:35.565Z,999.43
2018-09-14T10:40:35.614Z,999.41
2018-09-14T10:41:35.549Z,999.43
2018-09-14T10:42:35.549Z,999.40
2018-09-14T10:43:35.533Z,999.36
2018-09-14T10:44:35.520Z,999.30
2018-09-14T10:45:35.507Z,999.34
2018-09-14T10:46:35.503Z,999.35
2018-09-14T10:47:35.492Z,999.31
2018-09-14T10:48:35.488Z,999.32
2018-09-14T10:49:35.491Z,999.34
2018-09-14T10:50:35.472Z,999.35
2018-09-14T10:51:35.460Z,999.34
2018-09-14T10:52:35.460Z,999.37
2018-09-14T10:53:35.447Z,999.34
2018-09-14T10:54:35.443Z,999.33
2018-09-14T10:55:35.453Z,999.28
2018-09-14T10:56:35.430Z,999.29
2018-09-14T10:57:35.424Z,999.32
2018-09-14T10:58:35.411Z,999.29
2018-09-14T10:59:35.414Z,999.30
2018-09-14T11:00:35.401Z,999.29
2018-09-14T11:01:35.395Z,999.29
2018-09-14T11:02:35.388Z,999.24
2018-09-14T11:03:35.382Z,999.22
2018-09-14T11:04:35.430Z,999.19
2018-09-14T11:05:35.364Z,999.17
2018-09-14T11:06:35.429Z,999.16
2018-09-14T11:07:35.351Z,999.17
2018-09-14T11:08:35.338Z,999.21
2018-09-14T11:09:35.337Z,999.18
2018-09-14T11:10:35.328Z,999.18
2018-09-14T11:11:35.315Z,999.19
2018-09-14T11:12:35.314Z,999.17
2018-09-14T11:13:35.307Z,999.14
2018-09-14T11:14:35.296Z,999.16
2018-09-14T11:15:35.279Z,999.13
2018-09-14T11:16:35.289Z,999.18
2018-09-14T11:17:35.267Z,999.17
2018-09-14T11:18:35.275Z,999.16
2018-09-14T11:19:35.251Z,999.15
2018-09-14T11:20:35.296Z,999.17
2018-09-14T11:21:35.235Z,999.13
2018-09-14T11:22:35.231Z,999.13
2018-09-14T11:23:35.226Z,999.10
2018-09-14T11:24:35.248Z,999.07
2018-09-14T11:25:35.211Z,999.06
2018-09-14T11:26:35.200Z,999.06
2018-09-14T11:27:35.187Z,999.05
2018-09-14T11:28:35.184Z,999.06
2018-09-14T11:29:35.225Z,999.02
2018-09-14T11:30:35.171Z,999.01
2018-09-14T11:31:35.158Z,999.00
2018-09-14T11:32:35.146Z,999.02
2018-09-14T11:33:35.146Z,999.01
2018-09-14T11:34:35.139Z,999.03
2018-09-14T11:35:35.127Z,999.00
2018-09-14T11:36:35.120Z,998.98
2018-09-14T11:37:35.216Z,998.99
2018-09-14T11:38:35.274Z,999.00
2018-09-14T11:39:35.095Z,998.96
2018-09-14T11:40:35.092Z,998.96
2018-09-14T11:41:35.085Z,998.97
2018-09-14T11:42:35.072Z,998.94
2018-09-14T11:43:35.066Z,998.96
2018-09-14T11:44:35.060Z,998.94
2018-09-14T11:45:35.053Z,998.91
2018-09-14T11:46:35.083Z,998.92
2018-09-14T11:47:35.032Z,998.90
2018-09-14T11:48:35.032Z,998.90
2018-09-14T11:49:35.020Z,998.89
2018-09-14T11:50:35.014Z,998.89
2018-09-14T11:51:35.007Z,998.90
2018-09-14T11:52:35.001Z,998.86
2018-09-14T11:53:35.015Z,998.87
2018-09-14T11:54:34.986Z,998.84
2018-09-14T11:55:34.981Z,998.85
2018-09-14T11:56:34.968Z,998.82
2018-09-14T11:57:34.962Z,998.85
2018-09-14T11:58:35.907Z,998.79
2018-09-14T11:59:34.946Z,998.76
2018-09-14T12:00:34.939Z,998.76
2018-09-14T12:01:34.932Z,998.75
2018-09-14T12:02:34.930Z,998.77
2018-09-14T12:03:34.914Z,998.75
2018-09-14T12:04:34.905Z,998.73
2018-09-14T12:05:34.898Z,998.78
2018-09-14T12:06:34.898Z,998.76
2018-09-14T12:07:34.885Z,998.75
2018-09-14T12:08:34.872Z,998.71
2018-09-14T12:09:34.872Z,998.71
2018-09-14T12:10:34.862Z,998.71
2018-09-14T12:11:34.866Z,998.71
2018-09-14T12:12:34.841Z,998.72
2018-09-14T12:13:34.847Z,998.66
2018-09-14T12:14:34.825Z,998.66
2018-09-14T12:15:34.819Z,998.67
2018-09-14T12:16:34.813Z,998.65
2018-09-14T12:17:34.809Z,998.65
2018-09-14T12:18:34.799Z,998.64
2018-09-14T12:19:34.787Z,998.61
2018-09-14T12:20:34.777Z,998.60
2018-09-14T12:21:34.768Z,998.63
2018-09-14T12:22:34.771Z,998.59
2018-09-14T12:23:34.766Z,998.58
2018-09-14T12:24:34.745Z,998.56
2018-09-14T12:25:34.749Z,998.58
2018-09-14T12:26:34.729Z,998.54
2018-09-14T12:27:34.720Z,998.54
2018-09-14T12:28:34.711Z,998.53
2018-09-14T12:29:34.700Z,998.50
2018-09-14T12:30:34.691Z,998.45
2018-09-14T12:31:34.685Z,998.48
2018-09-14T12:32:34.668Z,998.51